sensor_id;sensor_type;location;lat;lon;timestamp;pressure;altitude;pressure_sealevel;temperature;humidity
52983;BME280;48698;45.736;13.926;2022-07-29T00:02:33;97525.56;;;19.69;100.00
52983;BME280;48698;45.736;13.926;2022-07-29T00:07:36;97517.31;;;19.61;100.00
52983;BME280;48698;45.736;13.926;2022-07-29T00:12:38;97508.91;;;19.45;100.00
52983;BME280;48698;45.736;13.926;2022-07-29T00:17:41;97515.06;;;19.36;100.00
52983;BME280;48698;45.736;13.926;2022-07-29T00:22:45;97510.88;;;19.92;100.00
52983;BME280;48698;45.736;13.926;2022-07-29T00:27:48;97514.31;;;19.45;100.00
52983;BME280;48698;45.736;13.926;2022-07-29T00:32:51;97515.94;;;19.76;100.00
52983;BME280;48698;45.736;13.926;2022-07-29T00:37:54;97520.25;;;19.88;100.00
52983;BME280;48698;45.736;13.926;2022-07-29T00:42:57;97514.16;;;20.05;100.00
52983;BME280;48698;45.736;13.926;2022-07-29T00:47:59;97501.50;;;19.87;100.00
52983;BME280;48698;45.736;13.926;2022-07-29T00:53:05;97497.50;;;19.72;100.00
52983;BME280;48698;45.736;13.926;2022-07-29T00:58:08;97481.78;;;20.15;100.00
52983;BME280;48698;45.736;13.926;2022-07-29T01:03:11;97477.28;;;21.20;100.00
52983;BME280;48698;45.736;13.926;2022-07-29T01:08:15;97474.19;;;20.30;100.00
52983;BME280;48698;45.736;13.926;2022-07-29T01:13:18;97484.94;;;20.10;100.00
52983;BME280;48698;45.736;13.926;2022-07-29T01:18:34;97482.66;;;19.96;100.00
52983;BME280;48698;45.736;13.926;2022-07-29T01:23:48;97475.22;;;19.70;100.00
52983;BME280;48698;45.736;13.926;2022-07-29T01:29:00;97468.69;;;19.72;100.00
52983;BME280;48698;45.736;13.926;2022-07-29T01:34:10;97470.41;;;19.73;100.00
52983;BME280;48698;45.736;13.926;2022-07-29T01:39:17;97472.25;;;19.82;100.00
52983;BME280;48698;45.736;13.926;2022-07-29T01:44:30;97464.28;;;19.52;100.00
52983;BME280;48698;45.736;13.926;2022-07-29T01:49:35;97458.91;;;19.52;100.00
52983;BME280;48698;45.736;13.926;2022-07-29T01:54:43;97462.22;;;19.35;100.00
52983;BME280;48698;45.736;13.926;2022-07-29T01:59:48;97463.06;;;19.35;100.00
52983;BME280;48698;45.736;13.926;2022-07-29T02:04:51;97461.41;;;19.44;100.00
52983;BME280;48698;45.736;13.926;2022-07-29T02:09:54;97457.03;;;19.52;100.00
52983;BME280;48698;45.736;13.926;2022-07-29T02:14:59;97462.03;;;19.76;100.00
52983;BME280;48698;45.736;13.926;2022-07-29T02:20:03;97454.53;;;19.89;100.00
52983;BME280;48698;45.736;13.926;2022-07-29T02:25:07;97453.72;;;20.08;100.00
52983;BME280;48698;45.736;13.926;2022-07-29T02:30:14;97457.56;;;20.25;100.00
52983;BME280;48698;45.736;13.926;2022-07-29T02:35:17;97451.16;;;20.16;100.00
52983;BME280;48698;45.736;13.926;2022-07-29T02:40:21;97431.16;;;21.40;100.00
52983;BME280;48698;45.736;13.926;2022-07-29T02:45:23;97434.34;;;21.98;100.00
52983;BME280;48698;45.736;13.926;2022-07-29T02:50:32;97439.22;;;22.12;100.00
52983;BME280;48698;45.736;13.926;2022-07-29T02:55:40;97442.06;;;22.29;100.00
52983;BME280;48698;45.736;13.926;2022-07-29T03:00:44;97432.94;;;22.30;100.00
52983;BME280;48698;45.736;13.926;2022-07-29T03:05:49;97429.16;;;22.23;100.00
52983;BME280;48698;45.736;13.926;2022-07-29T03:10:54;97425.25;;;22.17;100.00
52983;BME280;48698;45.736;13.926;2022-07-29T03:15:58;97416.00;;;22.28;100.00
52983;BME280;48698;45.736;13.926;2022-07-29T03:21:02;97414.41;;;22.17;100.00
52983;BME280;48698;45.736;13.926;2022-07-29T03:26:05;97428.84;;;22.26;100.00
52983;BME280;48698;45.736;13.926;2022-07-29T03:31:08;97435.78;;;22.28;100.00
52983;BME280;48698;45.736;13.926;2022-07-29T03:36:11;97446.25;;;22.23;100.00
52983;BME280;48698;45.736;13.926;2022-07-29T03:41:13;97444.97;;;21.55;100.00
52983;BME280;48698;45.736;13.926;2022-07-29T03:46:22;97433.22;;;21.19;100.00
52983;BME280;48698;45.736;13.926;2022-07-29T03:51:26;97430.72;;;20.98;100.00
52983;BME280;48698;45.736;13.926;2022-07-29T03:56:37;97419.06;;;21.07;100.00
52983;BME280;48698;45.736;13.926;2022-07-29T04:01:40;97404.72;;;21.79;100.00
52983;BME280;48698;45.736;13.926;2022-07-29T04:06:44;97384.03;;;22.23;100.00
52983;BME280;48698;45.736;13.926;2022-07-29T04:11:48;97369.63;;;22.40;100.00
52983;BME280;48698;45.736;13.926;2022-07-29T04:17:04;97337.72;;;22.52;100.00
52983;BME280;48698;45.736;13.926;2022-07-29T04:22:07;97339.44;;;22.53;100.00
52983;BME280;48698;45.736;13.926;2022-07-29T04:27:10;97358.00;;;22.74;100.00
52983;BME280;48698;45.736;13.926;2022-07-29T04:32:12;97367.38;;;22.79;100.00
52983;BME280;48698;45.736;13.926;2022-07-29T04:37:15;97371.94;;;22.79;100.00
52983;BME280;48698;45.736;13.926;2022-07-29T04:42:17;97378.97;;;22.97;100.00
52983;BME280;48698;45.736;13.926;2022-07-29T04:47:28;97388.78;;;22.98;100.00
52983;BME280;48698;45.736;13.926;2022-07-29T04:52:30;97396.31;;;23.12;100.00
52983;BME280;48698;45.736;13.926;2022-07-29T04:57:33;97409.88;;;23.21;100.00
52983;BME280;48698;45.736;13.926;2022-07-29T05:02:36;97417.38;;;23.27;100.00
52983;BME280;48698;45.736;13.926;2022-07-29T05:07:39;97418.59;;;23.32;100.00
52983;BME280;48698;45.736;13.926;2022-07-29T05:12:41;97424.19;;;23.39;100.00
52983;BME280;48698;45.736;13.926;2022-07-29T05:17:44;97430.84;;;23.44;100.00
52983;BME280;48698;45.736;13.926;2022-07-29T05:22:47;97444.94;;;23.48;100.00
52983;BME280;48698;45.736;13.926;2022-07-29T05:27:49;97447.38;;;23.67;100.00
52983;BME280;48698;45.736;13.926;2022-07-29T05:32:52;97449.09;;;23.76;100.00
52983;BME280;48698;45.736;13.926;2022-07-29T05:37:54;97462.28;;;23.71;100.00
52983;BME280;48698;45.736;13.926;2022-07-29T05:42:57;97451.63;;;23.70;100.00
52983;BME280;48698;45.736;13.926;2022-07-29T05:48:00;97455.53;;;23.83;100.00
52983;BME280;48698;45.736;13.926;2022-07-29T05:53:03;97460.84;;;23.93;100.00
52983;BME280;48698;45.736;13.926;2022-07-29T05:58:20;97460.00;;;23.92;100.00
52983;BME280;48698;45.736;13.926;2022-07-29T06:03:23;97470.91;;;24.16;100.00
52983;BME280;48698;45.736;13.926;2022-07-29T06:08:25;97475.53;;;24.48;100.00
52983;BME280;48698;45.736;13.926;2022-07-29T06:13:29;97480.81;;;24.90;100.00
52983;BME280;48698;45.736;13.926;2022-07-29T06:18:32;97493.84;;;25.19;100.00
52983;BME280;48698;45.736;13.926;2022-07-29T06:23:35;97489.50;;;25.49;100.00
52983;BME280;48698;45.736;13.926;2022-07-29T06:28:38;97498.63;;;25.80;100.00
52983;BME280;48698;45.736;13.926;2022-07-29T06:33:41;97505.31;;;26.00;100.00
52983;BME280;48698;45.736;13.926;2022-07-29T06:38:44;97500.25;;;25.97;100.00
52983;BME280;48698;45.736;13.926;2022-07-29T06:43:52;97505.41;;;25.84;100.00
52983;BME280;48698;45.736;13.926;2022-07-29T06:48:57;97501.31;;;26.50;100.00
52983;BME280;48698;45.736;13.926;2022-07-29T06:54:00;97506.00;;;27.24;100.00
52983;BME280;48698;45.736;13.926;2022-07-29T06:59:04;97503.78;;;27.71;100.00
52983;BME280;48698;45.736;13.926;2022-07-29T07:04:12;97510.63;;;27.82;100.00
52983;BME280;48698;45.736;13.926;2022-07-29T07:09:18;97508.00;;;28.03;100.00
52983;BME280;48698;45.736;13.926;2022-07-29T07:14:21;97509.25;;;28.37;100.00
52983;BME280;48698;45.736;13.926;2022-07-29T07:19:24;97512.00;;;28.37;100.00
52983;BME280;48698;45.736;13.926;2022-07-29T07:24:27;97506.41;;;28.45;100.00
52983;BME280;48698;45.736;13.926;2022-07-29T07:29:30;97511.97;;;28.94;100.00
52983;BME280;48698;45.736;13.926;2022-07-29T07:34:33;97508.00;;;28.96;100.00
52983;BME280;48698;45.736;13.926;2022-07-29T07:39:37;97504.81;;;29.42;100.00
52983;BME280;48698;45.736;13.926;2022-07-29T07:44:40;97511.91;;;29.30;100.00
52983;BME280;48698;45.736;13.926;2022-07-29T07:50:04;97510.16;;;29.84;100.00
52983;BME280;48698;45.736;13.926;2022-07-29T07:55:08;97503.00;;;29.83;100.00
52983;BME280;48698;45.736;13.926;2022-07-29T08:00:16;97501.28;;;30.30;100.00
52983;BME280;48698;45.736;13.926;2022-07-29T08:05:19;97503.66;;;30.33;100.00
52983;BME280;48698;45.736;13.926;2022-07-29T08:10:23;97494.84;;;30.44;97.30
52983;BME280;48698;45.736;13.926;2022-07-29T08:15:45;97508.97;;;30.41;99.90
52983;BME280;48698;45.736;13.926;2022-07-29T08:20:48;97511.28;;;30.44;99.36
52983;BME280;48698;45.736;13.926;2022-07-29T08:39:58;97495.38;;;31.33;95.25
52983;BME280;48698;45.736;13.926;2022-07-29T08:45:03;97494.78;;;31.50;96.85
52983;BME280;48698;45.736;13.926;2022-07-29T08:59:40;97509.72;;;31.74;74.24
52983;BME280;48698;45.736;13.926;2022-07-29T09:18:50;97486.88;;;30.55;96.01
52983;BME280;48698;45.736;13.926;2022-07-29T09:24:00;97490.28;;;30.90;94.56
52983;BME280;48698;45.736;13.926;2022-07-29T09:29:10;97484.34;;;31.78;84.23
52983;BME280;48698;45.736;13.926;2022-07-29T09:34:24;97479.81;;;32.17;75.67
52983;BME280;48698;45.736;13.926;2022-07-29T09:39:38;97478.28;;;32.28;71.35
52983;BME280;48698;45.736;13.926;2022-07-29T11:32:10;97433.63;;;33.69;47.53
52983;BME280;48698;45.736;13.926;2022-07-29T11:37:20;97433.50;;;33.39;49.66
52983;BME280;48698;45.736;13.926;2022-07-29T11:45:46;97427.84;;;33.34;53.77
52983;BME280;48698;45.736;13.926;2022-07-29T11:50:55;97426.94;;;33.58;53.92
52983;BME280;48698;45.736;13.926;2022-07-29T11:56:04;97421.00;;;33.18;51.33
52983;BME280;48698;45.736;13.926;2022-07-29T12:01:53;97414.69;;;33.36;56.39
52983;BME280;48698;45.736;13.926;2022-07-29T12:13:14;97419.09;;;32.94;57.09
52983;BME280;48698;45.736;13.926;2022-07-29T12:18:25;97425.47;;;32.57;58.78
52983;BME280;48698;45.736;13.926;2022-07-29T12:23:41;97420.97;;;32.69;55.35
52983;BME280;48698;45.736;13.926;2022-07-29T12:28:56;97417.84;;;32.28;59.29
52983;BME280;48698;45.736;13.926;2022-07-29T12:34:01;97411.72;;;32.63;49.88
52983;BME280;48698;45.736;13.926;2022-07-29T12:39:17;97396.22;;;32.69;53.27
52983;BME280;48698;45.736;13.926;2022-07-29T12:47:03;97396.69;;;33.15;49.41
52983;BME280;48698;45.736;13.926;2022-07-29T12:59:30;97394.88;;;33.03;51.03
52983;BME280;48698;45.736;13.926;2022-07-29T13:05:06;97388.38;;;32.72;47.98
52983;BME280;48698;45.736;13.926;2022-07-29T13:10:17;97389.88;;;32.93;52.88
52983;BME280;48698;45.736;13.926;2022-07-29T13:15:28;97399.94;;;33.31;54.02
52983;BME280;48698;45.736;13.926;2022-07-29T13:20:31;97398.06;;;32.75;54.29
52983;BME280;48698;45.736;13.926;2022-07-29T13:25:35;97395.59;;;32.67;57.10
52983;BME280;48698;45.736;13.926;2022-07-29T13:30:44;97386.44;;;32.42;52.19
52983;BME280;48698;45.736;13.926;2022-07-29T13:35:48;97392.47;;;32.57;54.29
52983;BME280;48698;45.736;13.926;2022-07-29T13:40:51;97385.84;;;32.71;55.77
52983;BME280;48698;45.736;13.926;2022-07-29T13:45:59;97384.22;;;32.57;51.66
52983;BME280;48698;45.736;13.926;2022-07-29T13:51:07;97378.38;;;32.47;56.63
52983;BME280;48698;45.736;13.926;2022-07-29T13:56:11;97375.28;;;32.93;58.32
52983;BME280;48698;45.736;13.926;2022-07-29T14:01:23;97367.22;;;32.73;58.76
52983;BME280;48698;45.736;13.926;2022-07-29T14:06:27;97361.84;;;32.53;57.98
52983;BME280;48698;45.736;13.926;2022-07-29T14:11:34;97354.00;;;32.82;55.48
52983;BME280;48698;45.736;13.926;2022-07-29T14:16:48;97348.16;;;33.21;53.62
52983;BME280;48698;45.736;13.926;2022-07-29T14:22:16;97346.41;;;32.84;50.03
52983;BME280;48698;45.736;13.926;2022-07-29T14:27:27;97343.19;;;33.05;53.03
52983;BME280;48698;45.736;13.926;2022-07-29T14:32:34;97337.25;;;33.14;50.70
52983;BME280;48698;45.736;13.926;2022-07-29T14:37:52;97332.66;;;33.02;50.40
52983;BME280;48698;45.736;13.926;2022-07-29T14:42:59;97334.88;;;32.93;48.51
52983;BME280;48698;45.736;13.926;2022-07-29T14:48:15;97337.94;;;33.03;48.54
52983;BME280;48698;45.736;13.926;2022-07-29T14:53:20;97325.38;;;32.71;46.53
52983;BME280;48698;45.736;13.926;2022-07-29T14:58:23;97331.31;;;32.68;48.29
52983;BME280;48698;45.736;13.926;2022-07-29T15:03:26;97320.91;;;32.70;51.52
52983;BME280;48698;45.736;13.926;2022-07-29T15:08:35;97327.41;;;32.75;50.25
52983;BME280;48698;45.736;13.926;2022-07-29T15:13:41;97333.16;;;32.74;48.65
52983;BME280;48698;45.736;13.926;2022-07-29T15:18:44;97329.00;;;32.65;50.96
52983;BME280;48698;45.736;13.926;2022-07-29T15:23:49;97328.78;;;32.66;52.46
52983;BME280;48698;45.736;13.926;2022-07-29T15:29:24;97325.03;;;32.61;54.01
52983;BME280;48698;45.736;13.926;2022-07-29T15:34:28;97319.31;;;32.31;54.21
52983;BME280;48698;45.736;13.926;2022-07-29T15:39:32;97325.56;;;31.69;58.54
52983;BME280;48698;45.736;13.926;2022-07-29T15:44:35;97309.47;;;31.79;57.14
52983;BME280;48698;45.736;13.926;2022-07-29T15:49:40;97308.63;;;31.78;54.26
52983;BME280;48698;45.736;13.926;2022-07-29T15:54:49;97303.66;;;32.00;55.76
52983;BME280;48698;45.736;13.926;2022-07-29T15:59:53;97312.78;;;31.94;53.46
52983;BME280;48698;45.736;13.926;2022-07-29T16:05:04;97299.25;;;31.93;54.29
52983;BME280;48698;45.736;13.926;2022-07-29T16:10:10;97306.59;;;31.99;55.21
52983;BME280;48698;45.736;13.926;2022-07-29T16:15:14;97305.72;;;31.73;56.39
52983;BME280;48698;45.736;13.926;2022-07-29T16:20:17;97307.44;;;30.84;59.74
52983;BME280;48698;45.736;13.926;2022-07-29T16:25:23;97300.09;;;30.65;61.38
52983;BME280;48698;45.736;13.926;2022-07-29T16:30:46;97303.47;;;30.41;60.65
52983;BME280;48698;45.736;13.926;2022-07-29T16:35:49;97302.41;;;30.22;65.54
52983;BME280;48698;45.736;13.926;2022-07-29T16:40:53;97312.50;;;30.28;64.58
52983;BME280;48698;45.736;13.926;2022-07-29T16:45:56;97316.50;;;30.25;65.35
52983;BME280;48698;45.736;13.926;2022-07-29T16:51:00;97324.09;;;30.23;67.69
52983;BME280;48698;45.736;13.926;2022-07-29T16:56:03;97323.66;;;30.13;71.63
52983;BME280;48698;45.736;13.926;2022-07-29T17:01:09;97324.41;;;29.81;73.14
52983;BME280;48698;45.736;13.926;2022-07-29T17:06:13;97322.97;;;29.85;74.10
52983;BME280;48698;45.736;13.926;2022-07-29T17:11:16;97328.09;;;29.54;75.96
52983;BME280;48698;45.736;13.926;2022-07-29T17:16:19;97329.78;;;29.55;77.53
52983;BME280;48698;45.736;13.926;2022-07-29T17:21:26;97333.09;;;29.44;80.35
52983;BME280;48698;45.736;13.926;2022-07-29T17:26:30;97331.06;;;29.18;82.25
52983;BME280;48698;45.736;13.926;2022-07-29T17:31:33;97333.44;;;29.28;86.94
52983;BME280;48698;45.736;13.926;2022-07-29T17:36:36;97337.31;;;29.05;83.98
52983;BME280;48698;45.736;13.926;2022-07-29T17:41:39;97329.41;;;29.23;81.80
52983;BME280;48698;45.736;13.926;2022-07-29T17:46:42;97337.31;;;29.05;84.02
52983;BME280;48698;45.736;13.926;2022-07-29T17:51:47;97342.78;;;28.29;100.00
52983;BME280;48698;45.736;13.926;2022-07-29T17:56:50;97339.59;;;27.68;100.00
52983;BME280;48698;45.736;13.926;2022-07-29T18:01:53;97337.31;;;27.50;100.00
52983;BME280;48698;45.736;13.926;2022-07-29T18:06:56;97353.31;;;27.09;100.00
52983;BME280;48698;45.736;13.926;2022-07-29T18:12:00;97345.22;;;27.16;100.00
52983;BME280;48698;45.736;13.926;2022-07-29T18:17:04;97358.25;;;26.39;100.00
52983;BME280;48698;45.736;13.926;2022-07-29T18:22:07;97360.53;;;25.82;100.00
52983;BME280;48698;45.736;13.926;2022-07-29T18:27:13;97370.53;;;25.59;100.00
52983;BME280;48698;45.736;13.926;2022-07-29T18:32:17;97368.81;;;25.66;100.00
52983;BME280;48698;45.736;13.926;2022-07-29T18:37:30;97371.78;;;25.79;100.00
52983;BME280;48698;45.736;13.926;2022-07-29T18:42:53;97375.19;;;25.81;100.00
52983;BME280;48698;45.736;13.926;2022-07-29T18:47:56;97383.25;;;25.28;100.00
52983;BME280;48698;45.736;13.926;2022-07-29T18:53:00;97379.34;;;24.43;100.00
52983;BME280;48698;45.736;13.926;2022-07-29T18:58:05;97383.06;;;24.50;100.00
52983;BME280;48698;45.736;13.926;2022-07-29T19:03:08;97380.34;;;24.58;100.00
52983;BME280;48698;45.736;13.926;2022-07-29T19:08:11;97390.88;;;24.53;100.00
52983;BME280;48698;45.736;13.926;2022-07-29T19:13:16;97398.34;;;24.51;100.00
52983;BME280;48698;45.736;13.926;2022-07-29T19:18:19;97399.88;;;24.37;100.00
52983;BME280;48698;45.736;13.926;2022-07-29T19:23:22;97408.81;;;23.97;100.00
52983;BME280;48698;45.736;13.926;2022-07-29T19:28:25;97427.28;;;24.02;100.00
52983;BME280;48698;45.736;13.926;2022-07-29T19:33:28;97434.50;;;23.69;100.00
52983;BME280;48698;45.736;13.926;2022-07-29T19:38:33;97426.31;;;24.27;100.00
52983;BME280;48698;45.736;13.926;2022-07-29T19:43:36;97438.00;;;24.11;100.00
52983;BME280;48698;45.736;13.926;2022-07-29T19:48:53;97425.34;;;24.52;100.00
52983;BME280;48698;45.736;13.926;2022-07-29T19:53:56;97432.88;;;23.92;100.00
52983;BME280;48698;45.736;13.926;2022-07-29T19:58:59;97435.84;;;23.65;100.00
52983;BME280;48698;45.736;13.926;2022-07-29T20:04:02;97441.28;;;23.73;100.00
52983;BME280;48698;45.736;13.926;2022-07-29T20:09:05;97439.72;;;24.12;100.00
52983;BME280;48698;45.736;13.926;2022-07-29T20:14:18;97439.06;;;24.51;100.00
52983;BME280;48698;45.736;13.926;2022-07-29T20:19:21;97438.91;;;24.44;100.00
52983;BME280;48698;45.736;13.926;2022-07-29T20:24:24;97434.13;;;24.14;100.00
52983;BME280;48698;45.736;13.926;2022-07-29T20:29:27;97433.84;;;23.83;100.00
52983;BME280;48698;45.736;13.926;2022-07-29T20:34:30;97436.84;;;23.56;100.00
52983;BME280;48698;45.736;13.926;2022-07-29T20:39:34;97418.28;;;23.93;100.00
52983;BME280;48698;45.736;13.926;2022-07-29T20:44:38;97411.84;;;23.86;100.00
52983;BME280;48698;45.736;13.926;2022-07-29T20:49:41;97391.50;;;23.82;100.00
52983;BME280;48698;45.736;13.926;2022-07-29T20:54:46;97378.31;;;24.19;100.00
